createdAt,value
2018-04-07T00:00:54.219Z,1.77
2018-04-07T00:03:24.214Z,2.13
2018-04-07T00:05:53.911Z,2.23
2018-04-07T00:08:23.552Z,2.20
2018-04-07T00:10:53.541Z,2.20
2018-04-07T00:13:23.165Z,1.97
2018-04-07T00:15:52.824Z,1.93
2018-04-07T00:18:22.446Z,1.70
2018-04-07T00:20:52.019Z,2.00
2018-04-07T00:23:34.228Z,2.20
2018-04-07T00:26:03.817Z,2.40
2018-04-07T00:28:33.393Z,1.87
2018-04-07T00:31:03.283Z,2.50
2018-04-07T00:33:32.876Z,1.40
2018-04-07T00:36:02.445Z,1.83
2018-04-07T00:38:32.028Z,1.83
2018-04-07T00:41:01.575Z,2.00
2018-04-07T00:43:31.232Z,2.70
2018-04-07T00:46:00.798Z,1.93
2018-04-07T00:48:37.755Z,1.77
2018-04-07T00:51:13.883Z,1.90
2018-04-07T00:53:44.965Z,1.40
2018-04-07T00:56:14.599Z,1.73
2018-04-07T00:58:44.165Z,1.70
2018-04-07T01:01:14.112Z,1.60
2018-04-07T01:03:43.702Z,1.70
2018-04-07T01:06:21.332Z,1.87
2018-04-07T01:08:50.957Z,2.33
2018-04-07T01:11:20.546Z,1.87
2018-04-07T01:13:50.337Z,2.10
2018-04-07T01:16:20.189Z,1.70
2018-04-07T01:18:49.746Z,2.20
2018-04-07T01:21:19.294Z,1.80
2018-04-07T01:23:49.013Z,2.13
2018-04-07T01:26:18.619Z,2.30
2018-04-07T01:28:48.563Z,1.60
2018-04-07T01:31:18.143Z,2.73
2018-04-07T01:33:56.630Z,2.00
2018-04-07T01:36:26.171Z,1.50
2018-04-07T01:38:55.804Z,1.93
2018-04-07T01:41:25.396Z,1.63
2018-04-07T01:43:55.042Z,2.60
2018-04-07T01:46:24.648Z,1.70
2018-04-07T01:48:54.269Z,2.20
2018-04-07T01:51:23.883Z,1.93
2018-04-07T01:53:53.679Z,2.50
2018-04-07T01:56:23.709Z,2.00
2018-04-07T01:59:03.375Z,2.03
2018-04-07T02:01:33.005Z,2.00
2018-04-07T02:04:02.651Z,2.60
2018-04-07T02:06:32.211Z,1.80
2018-04-07T02:09:01.887Z,2.07
2018-04-07T02:11:31.805Z,2.30
2018-04-07T02:14:01.668Z,2.10
2018-04-07T02:16:32.401Z,2.33
2018-04-07T02:19:02.091Z,2.43
2018-04-07T02:21:31.723Z,2.10
2018-04-07T02:24:01.310Z,2.77
2018-04-07T02:26:31.221Z,2.10
2018-04-07T02:29:01.064Z,2.53
2018-04-07T02:31:31.527Z,2.40
2018-04-07T02:34:02.178Z,3.07
2018-04-07T02:36:31.861Z,2.23
2018-04-07T02:39:01.499Z,2.63
2018-04-07T02:41:31.086Z,2.83
2018-04-07T02:44:01.000Z,1.90
2018-04-07T02:46:36.796Z,1.90
2018-04-07T02:49:06.345Z,2.00
2018-04-07T02:51:35.928Z,1.70
2018-04-07T02:54:05.528Z,1.90
2018-04-07T02:56:35.244Z,2.23
2018-04-07T02:59:04.803Z,3.00
2018-04-07T03:01:35.060Z,1.53
2018-04-07T03:04:04.687Z,2.03
2018-04-07T03:06:34.551Z,2.00
2018-04-07T03:09:10.541Z,2.60
2018-04-07T03:11:40.136Z,2.50
2018-04-07T03:14:09.790Z,2.47
2018-04-07T03:16:39.635Z,2.27
2018-04-07T03:19:09.215Z,2.20
2018-04-07T03:21:39.074Z,2.80
2018-04-07T03:24:08.776Z,2.50
2018-04-07T03:26:38.455Z,2.57
2018-04-07T03:29:08.061Z,1.80
2018-04-07T03:31:37.633Z,2.33
2018-04-07T03:34:07.162Z,2.70
2018-04-07T03:36:48.827Z,2.97
2018-04-07T03:39:18.447Z,2.40
2018-04-07T03:41:47.993Z,1.97
2018-04-07T03:44:17.609Z,1.83
2018-04-07T03:46:51.611Z,1.90
2018-04-07T03:49:21.293Z,2.63
2018-04-07T03:51:50.865Z,2.17
2018-04-07T03:54:20.453Z,2.10
2018-04-07T03:56:50.015Z,2.07
2018-04-07T03:59:20.109Z,2.30
2018-04-07T04:01:50.318Z,2.57
2018-04-07T04:04:19.942Z,1.97
2018-04-07T04:06:55.546Z,1.80
2018-04-07T04:09:25.138Z,1.90
2018-04-07T04:11:54.671Z,2.40
2018-04-07T04:14:24.315Z,1.50
2018-04-07T04:16:55.625Z,1.93
2018-04-07T04:19:31.208Z,2.00
2018-04-07T04:22:06.823Z,1.80
2018-04-07T04:24:36.405Z,1.77
2018-04-07T04:27:06.444Z,1.50
2018-04-07T04:29:44.607Z,1.70
2018-04-07T04:32:14.216Z,1.70
2018-04-07T04:34:43.817Z,1.40
2018-04-07T04:37:13.407Z,1.50
2018-04-07T04:39:50.747Z,2.33
2018-04-07T04:42:27.626Z,1.73
2018-04-07T04:44:57.196Z,1.60
2018-04-07T04:47:26.784Z,2.03
2018-04-07T04:49:56.374Z,1.73
2018-04-07T04:52:25.984Z,1.80
2018-04-07T04:54:55.562Z,2.13
2018-04-07T04:57:25.128Z,1.90
2018-04-07T05:00:02.060Z,1.80
2018-04-07T05:02:31.642Z,1.93
2018-04-07T05:05:01.249Z,1.80
2018-04-07T05:07:30.859Z,2.53
2018-04-07T05:10:00.473Z,3.17
2018-04-07T05:12:30.993Z,2.43
2018-04-07T05:15:00.609Z,3.20
2018-04-07T05:17:33.767Z,2.33
2018-04-07T05:20:03.431Z,2.60
2018-04-07T05:22:39.042Z,2.23
2018-04-07T05:25:09.315Z,2.10
2018-04-07T05:27:38.907Z,2.70
2018-04-07T05:30:09.697Z,2.20
2018-04-07T05:32:39.281Z,2.27
2018-04-07T05:35:13.721Z,2.33
2018-04-07T05:37:43.297Z,2.43
2018-04-07T05:40:13.518Z,2.20
2018-04-07T05:42:43.080Z,1.97
2018-04-07T05:45:15.587Z,2.67
2018-04-07T05:47:45.190Z,2.00
2018-04-07T05:50:14.740Z,2.40
2018-04-07T05:52:44.419Z,2.57
2018-04-07T05:55:14.025Z,2.43
2018-04-07T05:57:43.605Z,2.13
2018-04-07T06:00:13.118Z,2.13
2018-04-07T06:02:42.677Z,2.13
2018-04-07T06:05:12.638Z,2.13
2018-04-07T06:07:42.163Z,2.80
2018-04-07T06:10:12.787Z,2.53
2018-04-07T06:12:42.393Z,2.30
2018-04-07T06:15:12.002Z,3.30
2018-04-07T06:17:41.592Z,3.10
2018-04-07T06:20:11.161Z,2.00
2018-04-07T06:22:41.090Z,2.00
2018-04-07T06:25:10.646Z,2.70
2018-04-07T06:27:41.688Z,2.20
2018-04-07T06:30:11.224Z,2.60
2018-04-07T06:32:40.789Z,2.20
2018-04-07T06:35:16.578Z,1.57
2018-04-07T06:37:46.174Z,2.20
2018-04-07T06:40:15.734Z,3.03
2018-04-07T06:42:45.253Z,2.37
2018-04-07T06:45:14.829Z,2.70
2018-04-07T06:47:52.433Z,2.70
2018-04-07T06:50:22.923Z,2.13
2018-04-07T06:52:52.546Z,2.70
2018-04-07T06:55:22.130Z,2.47
2018-04-07T06:57:59.403Z,2.43
2018-04-07T07:00:29.126Z,2.13
2018-04-07T07:02:58.769Z,2.57
2018-04-07T07:05:28.347Z,2.50
2018-04-07T07:07:58.161Z,2.23
2018-04-07T07:10:41.950Z,2.67
2018-04-07T07:13:11.546Z,2.63
2018-04-07T07:15:41.209Z,2.50
2018-04-07T07:18:10.817Z,2.20
2018-04-07T07:20:43.779Z,2.90
2018-04-07T07:23:19.445Z,3.30
2018-04-07T07:25:49.096Z,3.07
2018-04-07T07:28:19.792Z,2.87
2018-04-07T07:30:49.601Z,2.70
2018-04-07T07:33:21.046Z,2.17
2018-04-07T07:35:50.699Z,2.00
2018-04-07T07:38:20.261Z,2.83
2018-04-07T07:40:50.965Z,2.53
2018-04-07T07:43:20.618Z,2.57
2018-04-07T07:45:50.253Z,3.23
2018-04-07T07:48:20.138Z,2.87
2018-04-07T07:50:49.899Z,2.63
2018-04-07T07:53:19.527Z,2.47
2018-04-07T07:55:49.631Z,2.70
2018-04-07T07:58:19.229Z,2.60
2018-04-07T08:00:48.820Z,2.40
2018-04-07T08:03:18.418Z,3.20
2018-04-07T08:05:47.992Z,2.70
2018-04-07T08:08:19.161Z,1.77
2018-04-07T08:10:50.466Z,2.70
2018-04-07T08:13:22.956Z,2.57
2018-04-07T08:15:52.757Z,2.00
2018-04-07T08:18:22.322Z,2.17
2018-04-07T08:20:51.932Z,2.80
2018-04-07T08:23:21.470Z,2.97
2018-04-07T08:25:51.050Z,2.73
2018-04-07T08:28:20.965Z,2.97
2018-04-07T08:30:50.588Z,2.70
2018-04-07T08:33:20.145Z,2.80
2018-04-07T08:35:51.095Z,3.00
2018-04-07T08:38:20.700Z,3.30
2018-04-07T08:40:50.528Z,2.93
2018-04-07T08:43:20.108Z,3.07
2018-04-07T08:45:49.690Z,3.20
2018-04-07T08:48:19.324Z,2.70
2018-04-07T08:50:56.841Z,3.03
2018-04-07T08:53:26.456Z,3.17
2018-04-07T08:55:56.177Z,4.60
2018-04-07T08:58:25.758Z,3.40
2018-04-07T09:00:56.253Z,2.47
2018-04-07T09:03:25.793Z,3.43
2018-04-07T09:05:55.414Z,2.27
2018-04-07T09:08:24.940Z,3.83
2018-04-07T09:10:54.462Z,2.30
2018-04-07T09:13:24.748Z,3.10
2018-04-07T09:15:54.692Z,3.07
2018-04-07T09:18:24.218Z,3.20
2018-04-07T09:21:00.808Z,3.00
2018-04-07T09:23:31.326Z,3.37
2018-04-07T09:26:07.271Z,3.20
2018-04-07T09:28:36.891Z,3.40
2018-04-07T09:31:12.195Z,2.80
2018-04-07T09:33:43.364Z,2.87
2018-04-07T09:36:12.937Z,2.83
2018-04-07T09:38:42.520Z,2.83
2018-04-07T09:41:12.073Z,3.27
2018-04-07T09:43:41.689Z,3.10
2018-04-07T09:46:11.251Z,2.97
2018-04-07T09:48:40.862Z,2.97
2018-04-07T09:51:10.413Z,3.03
2018-04-07T09:53:40.133Z,2.90
2018-04-07T09:56:09.705Z,2.67
2018-04-07T09:58:39.280Z,3.27
2018-04-07T10:01:08.825Z,3.00
2018-04-07T10:03:38.517Z,3.23
2018-04-07T10:06:08.737Z,2.87
2018-04-07T10:08:39.621Z,3.67
2018-04-07T10:11:09.966Z,3.57
2018-04-07T10:13:39.775Z,3.87
2018-04-07T10:16:09.377Z,4.40
2018-04-07T10:18:38.964Z,3.00
2018-04-07T10:21:08.563Z,3.23
2018-04-07T10:23:41.260Z,3.07
2018-04-07T10:26:10.895Z,3.37
2018-04-07T10:28:41.234Z,3.30
2018-04-07T10:31:10.824Z,3.30
2018-04-07T10:33:40.658Z,3.40
2018-04-07T10:36:11.234Z,3.20
2018-04-07T10:38:48.620Z,2.67
2018-04-07T10:41:18.185Z,3.67
2018-04-07T10:43:47.740Z,3.40
2018-04-07T10:46:25.130Z,4.13
2018-04-07T10:48:54.697Z,3.90
2018-04-07T10:51:24.586Z,3.30
2018-04-07T10:53:54.193Z,3.90
2018-04-07T10:56:23.726Z,3.37
2018-04-07T10:58:53.305Z,3.30
2018-04-07T11:01:22.840Z,4.10
2018-04-07T11:03:52.426Z,4.27
2018-04-07T11:06:22.989Z,4.07
2018-04-07T11:08:52.744Z,4.10
2018-04-07T11:11:30.077Z,3.50
2018-04-07T11:13:59.764Z,4.00
2018-04-07T11:16:29.308Z,3.43
2018-04-07T11:18:58.910Z,4.07
2018-04-07T11:21:28.814Z,3.57
2018-04-07T11:24:04.892Z,4.00
2018-04-07T11:26:34.797Z,4.73
2018-04-07T11:29:05.050Z,3.57
2018-04-07T11:31:35.101Z,3.97
2018-04-07T11:34:04.646Z,3.30
2018-04-07T11:36:34.189Z,3.80
2018-04-07T11:39:03.830Z,3.80
2018-04-07T11:41:33.418Z,2.87
2018-04-07T11:44:04.973Z,3.20
2018-04-07T11:46:34.553Z,4.50
2018-04-07T11:49:04.172Z,5.00
2018-04-07T11:51:33.777Z,4.83
2018-04-07T11:54:05.695Z,4.60
2018-04-07T11:56:35.269Z,5.40
2018-04-07T11:59:09.156Z,4.37
2018-04-07T12:01:39.603Z,4.57
2018-04-07T12:04:09.633Z,3.70
2018-04-07T12:06:39.216Z,3.83
2018-04-07T12:09:08.862Z,3.87
2018-04-07T12:11:38.489Z,3.73
2018-04-07T12:14:10.240Z,3.97
2018-04-07T12:16:39.963Z,4.70
2018-04-07T12:19:10.190Z,4.20
2018-04-07T12:21:39.770Z,3.77
2018-04-07T12:24:12.568Z,3.97
2018-04-07T12:26:42.345Z,3.20
2018-04-07T12:29:11.927Z,4.93
2018-04-07T12:31:41.596Z,3.50
2018-04-07T12:34:12.702Z,4.97
2018-04-07T12:36:42.673Z,3.67
2018-04-07T12:39:12.293Z,4.67
2018-04-07T12:41:41.876Z,3.93
2018-04-07T12:44:11.458Z,4.17
2018-04-07T12:46:41.006Z,3.77
2018-04-07T12:49:10.814Z,4.30
2018-04-07T12:51:40.378Z,3.70
2018-04-07T12:54:10.093Z,3.87
2018-04-07T12:56:39.814Z,5.13
2018-04-07T12:59:10.132Z,4.60
2018-04-07T13:01:39.959Z,3.80
2018-04-07T13:04:10.118Z,4.10
2018-04-07T13:06:39.682Z,4.37
2018-04-07T13:09:09.665Z,4.77
2018-04-07T13:11:45.343Z,4.37
2018-04-07T13:14:15.362Z,4.40
2018-04-07T13:16:44.945Z,3.70
2018-04-07T13:19:15.102Z,3.23
2018-04-07T13:21:44.775Z,4.30
2018-04-07T13:24:14.761Z,3.90
2018-04-07T13:26:44.397Z,5.27
2018-04-07T13:29:14.077Z,4.60
2018-04-07T13:31:43.609Z,3.73
2018-04-07T13:34:13.253Z,3.73
2018-04-07T13:36:42.897Z,5.30
2018-04-07T13:39:12.463Z,4.13
2018-04-07T13:41:43.812Z,4.70
2018-04-07T13:44:13.413Z,4.70
2018-04-07T13:46:42.984Z,4.50
2018-04-07T13:49:12.544Z,3.80
2018-04-07T13:51:42.157Z,3.83
2018-04-07T13:54:11.845Z,4.40
2018-04-07T13:56:49.814Z,3.10
2018-04-07T13:59:19.397Z,3.33
2018-04-07T14:01:49.072Z,3.40
2018-04-07T14:04:18.945Z,3.10
2018-04-07T14:06:49.268Z,3.40
2018-04-07T14:09:18.814Z,3.83
2018-04-07T14:11:48.396Z,3.43
2018-04-07T14:14:17.976Z,3.20
2018-04-07T14:16:47.833Z,3.90
2018-04-07T14:19:17.438Z,3.40
2018-04-07T14:21:47.143Z,3.70
2018-04-07T14:24:16.740Z,3.53
2018-04-07T14:26:46.330Z,4.00
2018-04-07T14:29:15.942Z,4.20
2018-04-07T14:32:04.521Z,4.27
2018-04-07T14:34:34.518Z,4.43
2018-04-07T14:37:04.073Z,4.27
2018-04-07T14:39:33.655Z,4.40
2018-04-07T14:42:03.953Z,4.40
2018-04-07T14:44:35.296Z,3.90
2018-04-07T14:47:06.753Z,3.90
2018-04-07T14:49:36.415Z,4.60
2018-04-07T14:52:06.185Z,4.50
2018-04-07T14:54:35.883Z,5.33
2018-04-07T14:57:05.460Z,4.33
2018-04-07T14:59:35.435Z,4.80
2018-04-07T15:02:05.383Z,5.10
2018-04-07T15:04:35.071Z,4.33
2018-04-07T15:07:04.690Z,4.47
2018-04-07T15:09:34.951Z,4.37
2018-04-07T15:12:12.006Z,4.23
2018-04-07T15:14:42.149Z,3.70
2018-04-07T15:17:11.733Z,5.30
2018-04-07T15:19:41.504Z,4.13
2018-04-07T15:22:11.261Z,4.53
2018-04-07T15:24:40.934Z,4.00
2018-04-07T15:27:10.605Z,6.47
2018-04-07T15:29:46.496Z,4.40
2018-04-07T15:32:22.192Z,5.30
2018-04-07T15:34:51.948Z,5.37
2018-04-07T15:37:21.501Z,4.90
2018-04-07T15:39:51.023Z,4.70
2018-04-07T15:42:20.611Z,4.40
2018-04-07T15:44:50.268Z,5.60
2018-04-07T15:47:19.950Z,5.77
2018-04-07T15:49:49.573Z,3.47
2018-04-07T15:52:19.895Z,4.37
2018-04-07T15:54:49.453Z,3.90
2018-04-07T15:57:34.078Z,4.80
2018-04-07T16:00:03.816Z,4.50
2018-04-07T16:02:33.346Z,5.20
2018-04-07T16:05:03.162Z,4.80
2018-04-07T16:07:32.833Z,4.50
2018-04-07T16:10:02.481Z,4.17
2018-04-07T16:12:32.069Z,4.87
2018-04-07T16:15:01.623Z,5.27
2018-04-07T16:17:31.237Z,4.83
2018-04-07T16:20:09.580Z,5.40
2018-04-07T16:22:39.282Z,5.83
2018-04-07T16:25:09.290Z,6.90
2018-04-07T16:27:40.545Z,6.97
2018-04-07T16:30:13.199Z,4.40
2018-04-07T16:32:42.809Z,4.30
2018-04-07T16:35:12.470Z,5.20
2018-04-07T16:37:42.108Z,4.33
2018-04-07T16:40:11.631Z,5.20
2018-04-07T16:42:41.145Z,4.67
2018-04-07T16:45:10.694Z,4.70
2018-04-07T16:47:40.221Z,4.30
2018-04-07T16:50:09.800Z,4.80
2018-04-07T16:52:39.540Z,4.60
2018-04-07T16:55:09.124Z,4.50
2018-04-07T16:57:38.990Z,4.13
2018-04-07T17:00:16.585Z,4.87
2018-04-07T17:02:46.145Z,5.17
2018-04-07T17:05:15.669Z,5.03
2018-04-07T17:08:01.958Z,5.30
2018-04-07T17:10:31.666Z,5.43
2018-04-07T17:13:01.257Z,5.30
2018-04-07T17:15:30.919Z,6.00
2018-04-07T17:18:08.071Z,5.30
2018-04-07T17:20:37.724Z,4.40
2018-04-07T17:23:07.684Z,4.70
2018-04-07T17:25:37.262Z,4.97
2018-04-07T17:28:14.423Z,4.50
2018-04-07T17:30:44.943Z,3.77
2018-04-07T17:33:14.725Z,4.70
2018-04-07T17:35:44.289Z,4.57
2018-04-07T17:38:14.538Z,4.70
2018-04-07T17:40:44.171Z,5.90
2018-04-07T17:43:13.758Z,4.70
2018-04-07T17:45:43.288Z,5.33
2018-04-07T17:48:13.694Z,5.37
2018-04-07T17:50:43.321Z,6.33
2018-04-07T17:53:13.790Z,5.97
2018-04-07T17:55:43.373Z,6.13
2018-04-07T17:58:12.924Z,4.70
2018-04-07T18:00:49.436Z,5.60
2018-04-07T18:03:19.262Z,4.87
2018-04-07T18:05:48.895Z,4.57
2018-04-07T18:08:18.465Z,4.70
2018-04-07T18:10:48.051Z,4.43
2018-04-07T18:13:17.712Z,4.70
2018-04-07T18:15:47.265Z,5.90
2018-04-07T18:18:16.850Z,3.93
2018-04-07T18:20:46.393Z,4.47
2018-04-07T18:23:16.146Z,5.30
2018-04-07T18:25:45.705Z,4.67
2018-04-07T18:28:15.284Z,4.13
2018-04-07T18:30:44.962Z,5.20
2018-04-07T18:33:15.658Z,4.43
2018-04-07T18:35:45.992Z,4.43
2018-04-07T18:38:15.639Z,3.70
2018-04-07T18:40:47.679Z,4.23
2018-04-07T18:43:17.270Z,3.67
2018-04-07T18:45:46.878Z,4.47
2018-04-07T18:48:17.285Z,4.20
2018-04-07T18:50:46.896Z,3.93
2018-04-07T18:53:16.562Z,3.80
2018-04-07T18:55:46.679Z,3.80
2018-04-07T18:58:16.311Z,3.60
2018-04-07T19:00:45.909Z,5.13
2018-04-07T19:03:17.376Z,4.20
2018-04-07T19:05:46.948Z,5.27
2018-04-07T19:08:17.918Z,4.00
2018-04-07T19:10:53.591Z,4.83
2018-04-07T19:13:23.404Z,4.20
2018-04-07T19:15:53.964Z,4.63
2018-04-07T19:18:23.577Z,4.37
2018-04-07T19:20:53.219Z,3.60
2018-04-07T19:23:22.993Z,4.93
2018-04-07T19:25:52.538Z,3.57
2018-04-07T19:28:23.489Z,3.97
2018-04-07T19:30:53.200Z,3.97
2018-04-07T19:33:22.960Z,4.73
2018-04-07T19:35:53.213Z,3.93
2018-04-07T19:38:22.827Z,3.17
2018-04-07T19:40:52.438Z,5.20
2018-04-07T19:43:22.452Z,3.90
2018-04-07T19:45:52.093Z,4.07
2018-04-07T19:48:22.434Z,4.40
2018-04-07T19:50:52.035Z,4.27
2018-04-07T19:53:21.737Z,4.10
2018-04-07T19:55:51.351Z,4.83
2018-04-07T19:58:21.190Z,4.97
2018-04-07T20:00:50.786Z,4.90
2018-04-07T20:03:20.386Z,4.47
2018-04-07T20:05:50.058Z,3.83
2018-04-07T20:08:19.678Z,4.63
2018-04-07T20:10:49.351Z,4.93
2018-04-07T20:13:19.208Z,4.63
2018-04-07T20:15:48.821Z,4.13
2018-04-07T20:18:18.731Z,4.67
2018-04-07T20:20:48.417Z,3.63
2018-04-07T20:23:18.274Z,4.30
2018-04-07T20:25:47.953Z,4.00
2018-04-07T20:28:17.649Z,3.83
2018-04-07T20:30:47.368Z,4.20
2018-04-07T20:33:24.797Z,5.00
2018-04-07T20:35:58.284Z,4.73
2018-04-07T20:38:27.888Z,6.03
2018-04-07T20:40:57.445Z,4.80
2018-04-07T20:43:27.068Z,5.03
2018-04-07T20:46:02.613Z,4.80
2018-04-07T20:48:32.288Z,4.50
2018-04-07T20:51:02.084Z,4.30
2018-04-07T20:53:32.029Z,5.90
2018-04-07T20:56:01.653Z,5.57
2018-04-07T20:58:31.606Z,4.27
2018-04-07T21:01:07.470Z,4.70
2018-04-07T21:03:37.876Z,4.60
2018-04-07T21:06:07.577Z,4.50
2018-04-07T21:08:37.232Z,4.20
2018-04-07T21:11:06.876Z,4.40
2018-04-07T21:13:36.651Z,4.23
2018-04-07T21:16:06.173Z,3.90
2018-04-07T21:18:36.043Z,5.60
2018-04-07T21:21:05.582Z,4.60
2018-04-07T21:23:35.205Z,4.77
2018-04-07T21:26:04.829Z,4.93
2018-04-07T21:28:34.511Z,5.00
2018-04-07T21:31:04.089Z,4.60
2018-04-07T21:33:43.292Z,5.10
2018-04-07T21:36:12.958Z,5.03
2018-04-07T21:38:42.580Z,5.37
2018-04-07T21:41:12.306Z,4.00
2018-04-07T21:43:42.515Z,5.10
2018-04-07T21:46:12.622Z,3.63
2018-04-07T21:48:43.414Z,3.77
2018-04-07T21:51:13.114Z,3.97
2018-04-07T21:53:43.150Z,3.97
2018-04-07T21:56:13.289Z,4.80
2018-04-07T21:58:45.101Z,4.30
2018-04-07T22:01:14.677Z,5.17
2018-04-07T22:03:44.251Z,4.53
2018-04-07T22:06:13.815Z,4.77
2018-04-07T22:08:43.510Z,4.30
2018-04-07T22:11:13.252Z,5.87
2018-04-07T22:13:42.902Z,4.90
2018-04-07T22:16:12.501Z,4.87
2018-04-07T22:18:42.104Z,5.03
2018-04-07T22:21:11.682Z,5.30
2018-04-07T22:23:41.225Z,4.83
2018-04-07T22:26:10.888Z,4.63
2018-04-07T22:28:40.482Z,5.07
2018-04-07T22:31:10.160Z,4.67
2018-04-07T22:33:40.238Z,4.80
2018-04-07T22:36:09.830Z,5.10
2018-04-07T22:38:39.648Z,5.50
2018-04-07T22:41:09.423Z,4.80
2018-04-07T22:43:39.203Z,4.43
2018-04-07T22:46:09.755Z,5.80
2018-04-07T22:48:39.333Z,4.43
2018-04-07T22:51:15.070Z,5.53
2018-04-07T22:53:57.580Z,5.13
2018-04-07T22:56:33.410Z,4.60
2018-04-07T22:59:03.020Z,4.90
2018-04-07T23:01:32.638Z,4.53
2018-04-07T23:04:02.261Z,6.77
2018-04-07T23:06:31.990Z,5.17
2018-04-07T23:09:01.576Z,5.30
2018-04-07T23:11:31.361Z,5.30
2018-04-07T23:14:02.515Z,5.10
2018-04-07T23:16:32.134Z,5.70
2018-04-07T23:19:01.711Z,4.53
2018-04-07T23:21:31.261Z,4.57
2018-04-07T23:24:00.846Z,5.80
2018-04-07T23:26:30.374Z,5.20
2018-04-07T23:29:03.640Z,5.57
2018-04-07T23:31:33.425Z,5.17
2018-04-07T23:34:03.025Z,6.33
2018-04-07T23:36:32.598Z,6.07
2018-04-07T23:39:02.587Z,5.47
2018-04-07T23:41:32.105Z,5.80
2018-04-07T23:44:01.692Z,5.83
2018-04-07T23:46:31.244Z,4.87
2018-04-07T23:49:00.764Z,4.33
2018-04-07T23:51:30.334Z,4.70
2018-04-07T23:53:59.944Z,5.77
2018-04-07T23:56:29.610Z,4.57
2018-04-07T23:58:59.454Z,4.40
